AirNav   TITAN Aviation Fuels
 
 894 users online  

T79 Skyway Manor Airport
Pearland, Texas, USA

GOING TO PEARLAND?


FAA INFORMATION EFFECTIVE 20 MAY 2021

Location

FAA Identifier: T79
Lat/Long: 29-33-20.8420N 095-19-40.7750W
29-33.347367N 095-19.679583W
29.5557894,-95.3279931
(estimated)
Elevation: 55 ft. / 17 m (estimated)
Variation: 06E (1985)
From city: 3 miles W of PEARLAND, TX
Time zone: UTC -5 (UTC -6 during Standard Time)
Zip code: 77584

Airport Operations

Airport use: Open to the public
Activation date: 02/1971
Control tower: no
ARTCC: HOUSTON CENTER
FSS: MONTGOMERY COUNTY FLIGHT SERVICE STATION
NOTAMs facility: CXO (NOTAM-D service available)
Attendance: IREG
Wind indicator: yes
Segmented circle: no

Airport Communications

CTAF: 122.9
WX ASOS at LVJ (5 nm SE): 118.525 (281-992-1853)
WX ASOS at HOU (6 nm NE): PHONE 713-847-1462
WX AWOS-3 at AXH (8 nm W): 123.625 (281-431-6572)
WX AWOS-3 at EFD (9 nm E): 135.575 (713-847-4430)
WX AWOS-3PT at T41 (15 nm NE): 120.275 (281-471-2206)
WX ASOS at SGR (18 nm W): 118.125 (281-242-7605)

Nearby radio navigation aids

VOR radial/distance  VOR name  Freq  Var
IAHr173/24.1HUMBLE VORTAC116.6005E
VUHr300/29.6SCHOLES VOR/DME113.0006E
MHFr264/30.3TRINITY VOR/DME113.6007E

Airport Services

Runway Information

Runway 17/35

Dimensions: 2550 x 70 ft. / 777 x 21 m
Surface: turf, in good condition
SOFT WHEN WET.
RUNWAY 17  RUNWAY 35
Traffic pattern: leftleft
Obstructions: 35 ft. pline, marked, 110 ft. from runway, 3:1 slope to clear50 ft. trees, 35 ft. right of centerline
ALSO 35 FT UNMARKED PLINE 100 FT 0B APCH RATIO 2:1.

Airport Ownership and Management from official FAA records

Ownership: Privately-owned
Owner: SKYWAY MANOR
2736 PIPER ROAD
PEARLAND, TX 77584
Phone (281) 997-7122
Manager: BERT WITHERS
2825 PIPER ROAD
PEARLAND, TX 77584
Phone (281) 723-8403
RESIDENTIAL AIRPARK-AMGR LIVES AT AIRPORT.

Airport Operational Statistics

Aircraft based on the field: 4
Single engine airplanes: 4
    
Aircraft operations: avg 42/month *
60% transient general aviation
40% local general aviation
* for 12-month period ending 25 April 2020

Additional Remarks

NUMEROUS OBJECTS IN PRIM SFC ENTIRE RWY LGTH-BLDGS, FENCES, TREES & BRUSH.
NO TGLS.
FOR CD CTC HOUSTON APCH AT 281-443-5844 TO CNL IFR CALL 281-443-5888.

Instrument Procedures

There are no published instrument procedures at T79.

Some nearby airports with instrument procedures:

KLVJ - Pearland Regional Airport (5 nm SE)
KHOU - William P Hobby Airport (6 nm NE)
KAXH - Houston Southwest Airport (8 nm W)
KEFD - Ellington Airport (9 nm E)
T41 - La Porte Municipal Airport (15 nm NE)
KSGR - Sugar Land Regional Airport (18 nm W)
 
Loc | Ops | Rwys | IFR | FBO | Links
Com | Nav | Svcs | Stats | Notes
Area around T79 (Skyway Manor Airport)
 
Road maps at: MapQuest Bing Google
 
Aerial photo
No photo
 
Sectional chart

 
Airport distance calculator
Flying to Skyway Manor Airport? Find the distance to fly.

From to T79

Sunrise and sunset
Times for 15-Jun-2021
 Local
(UTC-5)
 Zulu
(UTC)
Morning civil twilight05:5510:55
Sunrise06:2211:22
Sunset20:2201:22
Evening civil twilight20:4901:49

Current date and time
Zulu (UTC)  15-Jun-2021 12:25:45
Local (UTC-5)  15-Jun-2021 07:25:45
 
METAR
KLVJ 
5nm SE 
151153Z AUTO 00000KT 7SM CLR 26/24 A2997 RMK AO2 SLP149 T02610239 10267 20250 51008
KHOU 
5nm NE 
151153Z 00000KT 10SM FEW025 SCT250 27/23 A2996 RMK AO2 SLP147 T02720233 10289 20267 53006
KAXH 
8nm W 
151155Z AUTO 00000KT 10SM CLR 24/23 A2997 RMK AO2 T02360228 10248 20235
KEFD 
9nm E 
151150Z 00000KT 10SM FEW020 27/24 A2996
KT41 
15nm NE 
151155Z AUTO 00000KT 7SM CLR 25/ A2997 RMK AO2 T0252//// 10273 20245
KSGR 
17nm W 
151153Z 00000KT 8SM CLR 24/23 A2996 RMK AO2 SLP147 T02440228 10250 20239 51008
TAF
KHOU 
5nm NE 
151130Z 1512/1612 00000KT P6SM SCT030 SCT200 FM151900 10007KT P6SM VCTS SCT035CB SCT250 FM160000 09006KT P6SM SCT040 BKN250
KEFD 
9nm E 
151200Z 1512/1618 VRB06KT 4800 BR FEW030 QNH2994INS BECMG 1518/1519 VRB06KT 9999 NSW FEW065 QNH2993INS BECMG 1520/1521 VRB06KT 8000 -SHRA FEW055 QNH2992INS TEMPO 1522/1602 VRB15G25KT 6000 -TSRA BKN055CB BECMG 1602/1603 VRB06KT 9999 NSW SCT055 QNH2991INS TX34/1519Z TN24/1611Z
KSGR 
17nm W 
151130Z 1512/1612 00000KT P6SM FEW040 FEW250 FM151900 VRB04KT P6SM VCTS SCT040CB SCT250 FM160100 VRB03KT P6SM SCT040 BKN250
NOTAMs
Click for the latest NOTAMs
NOTAMs are issued by the DoD/FAA and will open in a separate window not controlled by AirNav.

 

 
 

Would you like to see your business listed on this page?

 If your business provides an interesting product or service to pilots, flight crews, aircraft, or users of the Skyway Manor Airport, you should consider listing it here.  To start the listing process, click on the button below
 
Add a business
 

Other Pages about Skyway Manor Airport

Update a link
 
Copyright © AirNav, LLC. All rights reserved. Privacy Policy  Contact